sensor_id;sensor_type;location;lat;lon;timestamp;temperature;humidity
17200;DHT22;8716;52.268;20.968;2022-08-19T00:01:38;24.60;99.90
17200;DHT22;8716;52.268;20.968;2022-08-19T00:04:09;24.50;99.90
17200;DHT22;8716;52.268;20.968;2022-08-19T00:06:41;24.50;99.90
17200;DHT22;8716;52.268;20.968;2022-08-19T00:09:12;24.50;99.90
17200;DHT22;8716;52.268;20.968;2022-08-19T00:11:41;24.50;99.90
17200;DHT22;8716;52.268;20.968;2022-08-19T00:14:13;24.40;99.90
17200;DHT22;8716;52.268;20.968;2022-08-19T00:16:44;24.50;99.90
17200;DHT22;8716;52.268;20.968;2022-08-19T00:19:14;24.40;99.90
17200;DHT22;8716;52.268;20.968;2022-08-19T00:21:42;24.40;99.90
17200;DHT22;8716;52.268;20.968;2022-08-19T00:24:13;24.40;99.90
17200;DHT22;8716;52.268;20.968;2022-08-19T00:26:43;24.40;99.90
17200;DHT22;8716;52.268;20.968;2022-08-19T00:29:14;24.30;99.90
17200;DHT22;8716;52.268;20.968;2022-08-19T00:31:45;24.30;99.90
17200;DHT22;8716;52.268;20.968;2022-08-19T00:34:16;24.30;99.90
17200;DHT22;8716;52.268;20.968;2022-08-19T00:36:45;24.30;99.90
17200;DHT22;8716;52.268;20.968;2022-08-19T00:39:18;24.20;99.90
17200;DHT22;8716;52.268;20.968;2022-08-19T00:41:47;24.20;99.90
17200;DHT22;8716;52.268;20.968;2022-08-19T00:44:20;24.20;99.90
17200;DHT22;8716;52.268;20.968;2022-08-19T00:46:54;24.10;99.90
17200;DHT22;8716;52.268;20.968;2022-08-19T00:49:27;24.10;99.90
17200;DHT22;8716;52.268;20.968;2022-08-19T00:52:03;24.10;99.90
17200;DHT22;8716;52.268;20.968;2022-08-19T00:54:33;24.00;99.90
17200;DHT22;8716;52.268;20.968;2022-08-19T00:57:06;24.00;99.90
17200;DHT22;8716;52.268;20.968;2022-08-19T00:59:36;23.90;99.90
17200;DHT22;8716;52.268;20.968;2022-08-19T01:02:26;23.90;99.90
17200;DHT22;8716;52.268;20.968;2022-08-19T01:04:56;23.80;99.90
17200;DHT22;8716;52.268;20.968;2022-08-19T01:07:24;23.70;99.90
17200;DHT22;8716;52.268;20.968;2022-08-19T01:09:54;23.70;99.90
17200;DHT22;8716;52.268;20.968;2022-08-19T01:12:22;23.70;99.90
17200;DHT22;8716;52.268;20.968;2022-08-19T01:14:51;23.70;99.90
17200;DHT22;8716;52.268;20.968;2022-08-19T01:17:22;23.70;99.90
17200;DHT22;8716;52.268;20.968;2022-08-19T01:19:51;23.60;99.90
17200;DHT22;8716;52.268;20.968;2022-08-19T01:22:28;23.60;99.90
17200;DHT22;8716;52.268;20.968;2022-08-19T01:25:00;23.50;99.90
17200;DHT22;8716;52.268;20.968;2022-08-19T01:27:37;23.50;99.90
17200;DHT22;8716;52.268;20.968;2022-08-19T01:30:13;23.40;99.90
17200;DHT22;8716;52.268;20.968;2022-08-19T01:32:42;23.40;99.90
17200;DHT22;8716;52.268;20.968;2022-08-19T01:35:11;23.30;99.90
17200;DHT22;8716;52.268;20.968;2022-08-19T01:37:47;23.30;99.90
17200;DHT22;8716;52.268;20.968;2022-08-19T01:40:16;23.30;99.90
17200;DHT22;8716;52.268;20.968;2022-08-19T01:42:46;23.30;99.90
17200;DHT22;8716;52.268;20.968;2022-08-19T01:45:18;23.20;99.90
17200;DHT22;8716;52.268;20.968;2022-08-19T01:47:46;23.10;99.90
17200;DHT22;8716;52.268;20.968;2022-08-19T01:50:29;23.10;99.90
17200;DHT22;8716;52.268;20.968;2022-08-19T01:52:59;23.10;99.90
17200;DHT22;8716;52.268;20.968;2022-08-19T01:55:34;23.10;99.90
17200;DHT22;8716;52.268;20.968;2022-08-19T01:58:12;23.10;99.90
17200;DHT22;8716;52.268;20.968;2022-08-19T02:00:43;23.10;99.90
17200;DHT22;8716;52.268;20.968;2022-08-19T02:03:12;23.10;99.90
17200;DHT22;8716;52.268;20.968;2022-08-19T02:05:41;23.00;99.90
17200;DHT22;8716;52.268;20.968;2022-08-19T02:08:11;23.00;99.90
17200;DHT22;8716;52.268;20.968;2022-08-19T02:10:41;23.00;99.90
17200;DHT22;8716;52.268;20.968;2022-08-19T02:13:10;23.00;99.90
17200;DHT22;8716;52.268;20.968;2022-08-19T02:15:39;23.00;99.90
17200;DHT22;8716;52.268;20.968;2022-08-19T02:18:07;22.90;99.90
17200;DHT22;8716;52.268;20.968;2022-08-19T02:20:37;22.90;99.90
17200;DHT22;8716;52.268;20.968;2022-08-19T02:23:07;22.90;99.90
17200;DHT22;8716;52.268;20.968;2022-08-19T02:25:45;22.80;99.90
17200;DHT22;8716;52.268;20.968;2022-08-19T02:28:15;22.80;99.90
17200;DHT22;8716;52.268;20.968;2022-08-19T02:30:46;22.80;99.90
17200;DHT22;8716;52.268;20.968;2022-08-19T02:33:15;22.80;99.90
17200;DHT22;8716;52.268;20.968;2022-08-19T02:35:44;22.80;99.90
17200;DHT22;8716;52.268;20.968;2022-08-19T02:38:15;22.80;99.90
17200;DHT22;8716;52.268;20.968;2022-08-19T02:40:59;22.80;99.90
17200;DHT22;8716;52.268;20.968;2022-08-19T02:43:29;22.70;99.90
17200;DHT22;8716;52.268;20.968;2022-08-19T02:46:01;22.70;99.90
17200;DHT22;8716;52.268;20.968;2022-08-19T02:48:29;22.70;99.90
17200;DHT22;8716;52.268;20.968;2022-08-19T02:50:58;22.70;99.90
17200;DHT22;8716;52.268;20.968;2022-08-19T02:53:27;22.70;99.90
17200;DHT22;8716;52.268;20.968;2022-08-19T02:55:57;22.70;99.90
17200;DHT22;8716;52.268;20.968;2022-08-19T02:58:25;22.60;99.90
17200;DHT22;8716;52.268;20.968;2022-08-19T03:00:55;22.60;99.90
17200;DHT22;8716;52.268;20.968;2022-08-19T03:03:24;22.60;99.90
17200;DHT22;8716;52.268;20.968;2022-08-19T03:06:02;22.50;99.90
17200;DHT22;8716;52.268;20.968;2022-08-19T03:08:30;22.50;99.90
17200;DHT22;8716;52.268;20.968;2022-08-19T03:10:59;22.50;99.90
17200;DHT22;8716;52.268;20.968;2022-08-19T03:13:28;22.50;99.90
17200;DHT22;8716;52.268;20.968;2022-08-19T03:15:56;22.40;99.90
17200;DHT22;8716;52.268;20.968;2022-08-19T03:18:27;22.50;99.90
17200;DHT22;8716;52.268;20.968;2022-08-19T03:20:55;22.40;99.90
17200;DHT22;8716;52.268;20.968;2022-08-19T03:23:23;22.40;99.90
17200;DHT22;8716;52.268;20.968;2022-08-19T03:25:53;22.40;99.90
17200;DHT22;8716;52.268;20.968;2022-08-19T03:28:43;22.40;99.90
17200;DHT22;8716;52.268;20.968;2022-08-19T03:31:19;22.40;99.90
17200;DHT22;8716;52.268;20.968;2022-08-19T03:34:08;22.40;99.90
17200;DHT22;8716;52.268;20.968;2022-08-19T03:36:38;22.40;99.90
17200;DHT22;8716;52.268;20.968;2022-08-19T03:39:06;22.40;99.90
17200;DHT22;8716;52.268;20.968;2022-08-19T03:41:37;22.40;99.90
17200;DHT22;8716;52.268;20.968;2022-08-19T03:44:14;22.40;99.90
17200;DHT22;8716;52.268;20.968;2022-08-19T03:46:45;22.40;99.90
17200;DHT22;8716;52.268;20.968;2022-08-19T03:49:13;22.40;99.90
17200;DHT22;8716;52.268;20.968;2022-08-19T03:51:45;22.40;99.90
17200;DHT22;8716;52.268;20.968;2022-08-19T03:54:15;22.40;99.90
17200;DHT22;8716;52.268;20.968;2022-08-19T03:56:45;22.40;99.90
17200;DHT22;8716;52.268;20.968;2022-08-19T03:59:20;22.40;99.90
17200;DHT22;8716;52.268;20.968;2022-08-19T04:01:49;22.40;99.90
17200;DHT22;8716;52.268;20.968;2022-08-19T04:04:17;22.40;99.90
17200;DHT22;8716;52.268;20.968;2022-08-19T04:06:45;22.50;99.90
17200;DHT22;8716;52.268;20.968;2022-08-19T04:09:17;22.50;99.90
17200;DHT22;8716;52.268;20.968;2022-08-19T04:11:47;22.50;99.90
17200;DHT22;8716;52.268;20.968;2022-08-19T04:14:20;22.50;99.90
17200;DHT22;8716;52.268;20.968;2022-08-19T04:16:49;22.60;99.90
17200;DHT22;8716;52.268;20.968;2022-08-19T04:19:18;22.60;99.90
17200;DHT22;8716;52.268;20.968;2022-08-19T04:21:49;22.70;99.90
17200;DHT22;8716;52.268;20.968;2022-08-19T04:24:20;22.70;99.90
17200;DHT22;8716;52.268;20.968;2022-08-19T04:26:49;22.70;99.90
17200;DHT22;8716;52.268;20.968;2022-08-19T04:29:24;22.80;99.90
17200;DHT22;8716;52.268;20.968;2022-08-19T04:31:55;22.90;99.90
17200;DHT22;8716;52.268;20.968;2022-08-19T04:34:25;23.00;99.90
17200;DHT22;8716;52.268;20.968;2022-08-19T04:36:55;23.10;99.90
17200;DHT22;8716;52.268;20.968;2022-08-19T04:39:26;23.20;99.90
17200;DHT22;8716;52.268;20.968;2022-08-19T04:42:17;23.30;99.90
17200;DHT22;8716;52.268;20.968;2022-08-19T04:45:05;23.40;99.90
17200;DHT22;8716;52.268;20.968;2022-08-19T04:47:35;23.50;99.90
17200;DHT22;8716;52.268;20.968;2022-08-19T04:50:23;23.60;99.90
17200;DHT22;8716;52.268;20.968;2022-08-19T04:52:51;23.70;99.90
17200;DHT22;8716;52.268;20.968;2022-08-19T04:55:24;23.70;99.90
17200;DHT22;8716;52.268;20.968;2022-08-19T04:57:53;23.90;99.90
17200;DHT22;8716;52.268;20.968;2022-08-19T05:00:22;24.00;99.90
17200;DHT22;8716;52.268;20.968;2022-08-19T05:02:50;24.20;99.90
17200;DHT22;8716;52.268;20.968;2022-08-19T05:05:19;24.60;99.90
17200;DHT22;8716;52.268;20.968;2022-08-19T05:07:47;24.90;99.90
17200;DHT22;8716;52.268;20.968;2022-08-19T05:10:15;25.20;99.90
17200;DHT22;8716;52.268;20.968;2022-08-19T05:12:43;25.40;99.90
17200;DHT22;8716;52.268;20.968;2022-08-19T05:15:14;25.40;99.90
17200;DHT22;8716;52.268;20.968;2022-08-19T05:17:43;25.50;99.90
17200;DHT22;8716;52.268;20.968;2022-08-19T05:20:31;25.50;99.90
17200;DHT22;8716;52.268;20.968;2022-08-19T05:23:17;25.50;99.90
17200;DHT22;8716;52.268;20.968;2022-08-19T05:25:49;25.40;99.90
17200;DHT22;8716;52.268;20.968;2022-08-19T05:28:18;25.40;99.90
17200;DHT22;8716;52.268;20.968;2022-08-19T05:30:46;25.40;99.90
17200;DHT22;8716;52.268;20.968;2022-08-19T05:33:21;25.70;99.90
17200;DHT22;8716;52.268;20.968;2022-08-19T05:35:49;26.10;99.90
17200;DHT22;8716;52.268;20.968;2022-08-19T05:38:17;26.40;99.90
17200;DHT22;8716;52.268;20.968;2022-08-19T05:40:45;26.80;99.90
17200;DHT22;8716;52.268;20.968;2022-08-19T05:43:15;27.40;99.90
17200;DHT22;8716;52.268;20.968;2022-08-19T05:45:43;28.20;99.90
17200;DHT22;8716;52.268;20.968;2022-08-19T05:48:13;29.00;99.90
17200;DHT22;8716;52.268;20.968;2022-08-19T05:50:43;29.70;99.90
17200;DHT22;8716;52.268;20.968;2022-08-19T05:53:12;30.40;99.90
17200;DHT22;8716;52.268;20.968;2022-08-19T05:55:43;31.10;99.90
17200;DHT22;8716;52.268;20.968;2022-08-19T05:58:11;31.70;99.90
17200;DHT22;8716;52.268;20.968;2022-08-19T06:00:39;32.00;99.90
17200;DHT22;8716;52.268;20.968;2022-08-19T06:03:10;32.20;99.90
17200;DHT22;8716;52.268;20.968;2022-08-19T06:05:40;32.30;99.90
17200;DHT22;8716;52.268;20.968;2022-08-19T06:08:19;32.20;99.90
17200;DHT22;8716;52.268;20.968;2022-08-19T06:11:15;32.30;99.90
17200;DHT22;8716;52.268;20.968;2022-08-19T06:13:45;32.20;99.90
17200;DHT22;8716;52.268;20.968;2022-08-19T06:16:17;32.10;99.90
17200;DHT22;8716;52.268;20.968;2022-08-19T06:18:50;31.90;99.90
17200;DHT22;8716;52.268;20.968;2022-08-19T06:21:20;32.00;99.90
17200;DHT22;8716;52.268;20.968;2022-08-19T06:23:50;32.30;99.90
17200;DHT22;8716;52.268;20.968;2022-08-19T06:26:19;32.70;99.90
17200;DHT22;8716;52.268;20.968;2022-08-19T06:28:48;33.00;99.90
17200;DHT22;8716;52.268;20.968;2022-08-19T06:31:18;33.20;99.90
17200;DHT22;8716;52.268;20.968;2022-08-19T06:33:48;33.30;99.90
17200;DHT22;8716;52.268;20.968;2022-08-19T06:36:18;33.40;99.90
17200;DHT22;8716;52.268;20.968;2022-08-19T06:38:52;33.50;99.90
17200;DHT22;8716;52.268;20.968;2022-08-19T06:41:20;33.50;99.90
17200;DHT22;8716;52.268;20.968;2022-08-19T06:43:48;33.50;99.90
17200;DHT22;8716;52.268;20.968;2022-08-19T06:46:21;33.80;99.90
17200;DHT22;8716;52.268;20.968;2022-08-19T06:48:49;34.30;99.90
17200;DHT22;8716;52.268;20.968;2022-08-19T06:51:22;34.50;99.90
17200;DHT22;8716;52.268;20.968;2022-08-19T06:53:57;34.40;99.90
17200;DHT22;8716;52.268;20.968;2022-08-19T06:56:27;34.60;99.90
17200;DHT22;8716;52.268;20.968;2022-08-19T06:58:58;34.80;99.90
17200;DHT22;8716;52.268;20.968;2022-08-19T07:01:26;35.00;99.40
17200;DHT22;8716;52.268;20.968;2022-08-19T07:03:54;34.80;98.90
17200;DHT22;8716;52.268;20.968;2022-08-19T07:06:24;34.80;99.20
17200;DHT22;8716;52.268;20.968;2022-08-19T07:09:15;35.10;98.60
17200;DHT22;8716;52.268;20.968;2022-08-19T07:11:45;35.40;98.10
17200;DHT22;8716;52.268;20.968;2022-08-19T07:14:14;35.40;97.00
17200;DHT22;8716;52.268;20.968;2022-08-19T07:16:47;35.10;96.90
17200;DHT22;8716;52.268;20.968;2022-08-19T07:19:18;34.70;97.30
17200;DHT22;8716;52.268;20.968;2022-08-19T07:21:47;34.30;98.00
17200;DHT22;8716;52.268;20.968;2022-08-19T07:24:18;33.80;98.60
17200;DHT22;8716;52.268;20.968;2022-08-19T07:26:46;33.90;98.80
17200;DHT22;8716;52.268;20.968;2022-08-19T07:29:19;34.00;98.60
17200;DHT22;8716;52.268;20.968;2022-08-19T07:31:55;34.10;98.50
17200;DHT22;8716;52.268;20.968;2022-08-19T07:34:26;34.10;98.50
17200;DHT22;8716;52.268;20.968;2022-08-19T07:36:56;34.10;98.10
17200;DHT22;8716;52.268;20.968;2022-08-19T07:39:27;34.10;98.20
17200;DHT22;8716;52.268;20.968;2022-08-19T07:41:57;34.20;98.40
17200;DHT22;8716;52.268;20.968;2022-08-19T07:44:26;34.60;98.10
17200;DHT22;8716;52.268;20.968;2022-08-19T07:46:56;35.10;97.30
17200;DHT22;8716;52.268;20.968;2022-08-19T07:49:24;35.60;96.80
17200;DHT22;8716;52.268;20.968;2022-08-19T07:51:54;36.10;96.20
17200;DHT22;8716;52.268;20.968;2022-08-19T07:54:27;36.60;95.40
17200;DHT22;8716;52.268;20.968;2022-08-19T07:56:56;37.30;94.50
17200;DHT22;8716;52.268;20.968;2022-08-19T07:59:25;37.70;93.60
17200;DHT22;8716;52.268;20.968;2022-08-19T08:01:57;38.10;92.90
17200;DHT22;8716;52.268;20.968;2022-08-19T08:04:27;38.20;92.10
17200;DHT22;8716;52.268;20.968;2022-08-19T08:07:13;38.20;91.50
17200;DHT22;8716;52.268;20.968;2022-08-19T08:10:04;38.00;91.60
17200;DHT22;8716;52.268;20.968;2022-08-19T08:12:46;37.80;91.90
17200;DHT22;8716;52.268;20.968;2022-08-19T08:15:35;37.90;91.30
17200;DHT22;8716;52.268;20.968;2022-08-19T08:18:09;37.90;90.80
17200;DHT22;8716;52.268;20.968;2022-08-19T08:20:38;38.00;90.80
17200;DHT22;8716;52.268;20.968;2022-08-19T08:23:06;38.20;90.50
17200;DHT22;8716;52.268;20.968;2022-08-19T08:25:56;38.40;89.70
17200;DHT22;8716;52.268;20.968;2022-08-19T08:28:25;39.00;88.50
17200;DHT22;8716;52.268;20.968;2022-08-19T08:30:58;39.40;87.60
17200;DHT22;8716;52.268;20.968;2022-08-19T08:33:28;39.80;86.50
17200;DHT22;8716;52.268;20.968;2022-08-19T08:36:01;40.40;86.10
17200;DHT22;8716;52.268;20.968;2022-08-19T08:38:30;41.00;83.30
17200;DHT22;8716;52.268;20.968;2022-08-19T08:41:13;41.40;80.40
17200;DHT22;8716;52.268;20.968;2022-08-19T08:43:48;41.90;77.90
17200;DHT22;8716;52.268;20.968;2022-08-19T08:46:23;42.00;76.60
17200;DHT22;8716;52.268;20.968;2022-08-19T08:49:02;42.30;75.40
17200;DHT22;8716;52.268;20.968;2022-08-19T08:51:37;42.50;74.00
17200;DHT22;8716;52.268;20.968;2022-08-19T08:54:13;42.70;73.00
17200;DHT22;8716;52.268;20.968;2022-08-19T08:56:44;42.80;71.80
17200;DHT22;8716;52.268;20.968;2022-08-19T08:59:21;42.80;71.90
17200;DHT22;8716;52.268;20.968;2022-08-19T09:01:51;42.90;70.80
17200;DHT22;8716;52.268;20.968;2022-08-19T09:04:19;42.90;70.10
17200;DHT22;8716;52.268;20.968;2022-08-19T09:06:53;42.70;70.50
17200;DHT22;8716;52.268;20.968;2022-08-19T09:09:26;42.50;70.20
17200;DHT22;8716;52.268;20.968;2022-08-19T09:12:09;42.50;70.00
17200;DHT22;8716;52.268;20.968;2022-08-19T09:14:45;42.30;70.30
17200;DHT22;8716;52.268;20.968;2022-08-19T09:17:19;42.30;70.20
17200;DHT22;8716;52.268;20.968;2022-08-19T09:19:58;42.20;71.00
17200;DHT22;8716;52.268;20.968;2022-08-19T09:22:27;42.20;70.60
17200;DHT22;8716;52.268;20.968;2022-08-19T09:24:56;42.10;70.80
17200;DHT22;8716;52.268;20.968;2022-08-19T09:27:28;41.90;71.20
17200;DHT22;8716;52.268;20.968;2022-08-19T09:30:13;41.60;71.70
17200;DHT22;8716;52.268;20.968;2022-08-19T09:32:42;41.70;71.90
17200;DHT22;8716;52.268;20.968;2022-08-19T09:35:12;41.80;71.80
17200;DHT22;8716;52.268;20.968;2022-08-19T09:37:41;41.80;71.20
17200;DHT22;8716;52.268;20.968;2022-08-19T09:40:11;41.70;71.50
17200;DHT22;8716;52.268;20.968;2022-08-19T09:42:42;41.50;71.30
17200;DHT22;8716;52.268;20.968;2022-08-19T09:45:18;41.50;71.50
17200;DHT22;8716;52.268;20.968;2022-08-19T09:47:49;41.40;70.90
17200;DHT22;8716;52.268;20.968;2022-08-19T09:50:21;41.40;68.60
17200;DHT22;8716;52.268;20.968;2022-08-19T09:52:50;41.30;67.90
17200;DHT22;8716;52.268;20.968;2022-08-19T09:55:24;41.00;68.70
17200;DHT22;8716;52.268;20.968;2022-08-19T09:58:00;40.90;68.70
17200;DHT22;8716;52.268;20.968;2022-08-19T10:00:29;40.70;67.30
17200;DHT22;8716;52.268;20.968;2022-08-19T10:02:58;40.70;66.50
17200;DHT22;8716;52.268;20.968;2022-08-19T10:05:27;40.50;68.10
17200;DHT22;8716;52.268;20.968;2022-08-19T10:08:16;40.20;68.80
17200;DHT22;8716;52.268;20.968;2022-08-19T10:10:46;40.10;69.30
17200;DHT22;8716;52.268;20.968;2022-08-19T10:13:18;40.00;68.90
17200;DHT22;8716;52.268;20.968;2022-08-19T10:15:48;39.80;69.70
17200;DHT22;8716;52.268;20.968;2022-08-19T10:18:19;39.80;70.30
17200;DHT22;8716;52.268;20.968;2022-08-19T10:20:49;39.50;70.50
17200;DHT22;8716;52.268;20.968;2022-08-19T10:23:20;39.30;71.80
17200;DHT22;8716;52.268;20.968;2022-08-19T10:25:48;39.20;71.70
17200;DHT22;8716;52.268;20.968;2022-08-19T10:28:21;39.20;70.80
17200;DHT22;8716;52.268;20.968;2022-08-19T10:30:49;39.10;71.40
17200;DHT22;8716;52.268;20.968;2022-08-19T10:33:18;38.80;71.20
17200;DHT22;8716;52.268;20.968;2022-08-19T10:36:08;38.80;72.00
17200;DHT22;8716;52.268;20.968;2022-08-19T10:38:37;38.80;71.00
17200;DHT22;8716;52.268;20.968;2022-08-19T10:41:19;38.70;71.10
17200;DHT22;8716;52.268;20.968;2022-08-19T10:44:00;38.70;71.50
17200;DHT22;8716;52.268;20.968;2022-08-19T10:46:30;38.60;71.50
17200;DHT22;8716;52.268;20.968;2022-08-19T10:48:59;38.50;71.10
17200;DHT22;8716;52.268;20.968;2022-08-19T10:51:28;38.50;70.80
17200;DHT22;8716;52.268;20.968;2022-08-19T10:54:16;38.50;70.50
17200;DHT22;8716;52.268;20.968;2022-08-19T10:56:58;38.40;71.30
17200;DHT22;8716;52.268;20.968;2022-08-19T10:59:29;38.50;71.00
17200;DHT22;8716;52.268;20.968;2022-08-19T11:02:04;38.40;71.30
17200;DHT22;8716;52.268;20.968;2022-08-19T11:04:33;38.20;71.30
17200;DHT22;8716;52.268;20.968;2022-08-19T11:19:28;38.00;69.90
17200;DHT22;8716;52.268;20.968;2022-08-19T11:39:25;37.40;73.10
17200;DHT22;8716;52.268;20.968;2022-08-19T11:42:17;37.40;72.30
17200;DHT22;8716;52.268;20.968;2022-08-19T11:45:17;37.40;73.10
17200;DHT22;8716;52.268;20.968;2022-08-19T11:48:01;37.30;72.40
17200;DHT22;8716;52.268;20.968;2022-08-19T11:50:43;37.30;71.70
17200;DHT22;8716;52.268;20.968;2022-08-19T13:34:50;34.50;75.80
17200;DHT22;8716;52.268;20.968;2022-08-19T14:08:47;34.10;76.60
17200;DHT22;8716;52.268;20.968;2022-08-19T14:52:29;33.70;76.40
17200;DHT22;8716;52.268;20.968;2022-08-19T14:55:00;33.60;75.50
17200;DHT22;8716;52.268;20.968;2022-08-19T14:57:33;33.60;75.30
17200;DHT22;8716;52.268;20.968;2022-08-19T15:00:02;33.60;75.70
17200;DHT22;8716;52.268;20.968;2022-08-19T15:02:30;33.50;75.90
17200;DHT22;8716;52.268;20.968;2022-08-19T15:05:01;33.50;75.60
17200;DHT22;8716;52.268;20.968;2022-08-19T15:07:30;33.40;76.00
17200;DHT22;8716;52.268;20.968;2022-08-19T15:09:59;33.40;76.10
17200;DHT22;8716;52.268;20.968;2022-08-19T15:12:27;33.40;76.00
17200;DHT22;8716;52.268;20.968;2022-08-19T15:14:55;33.30;75.70
17200;DHT22;8716;52.268;20.968;2022-08-19T15:17:23;33.20;76.30
17200;DHT22;8716;52.268;20.968;2022-08-19T15:20:16;33.20;76.10
17200;DHT22;8716;52.268;20.968;2022-08-19T15:22:46;33.20;77.10
17200;DHT22;8716;52.268;20.968;2022-08-19T15:25:16;33.20;76.10
17200;DHT22;8716;52.268;20.968;2022-08-19T15:27:45;33.10;76.60
17200;DHT22;8716;52.268;20.968;2022-08-19T15:30:20;33.10;76.80
17200;DHT22;8716;52.268;20.968;2022-08-19T15:32:49;33.10;76.40
17200;DHT22;8716;52.268;20.968;2022-08-19T15:35:19;33.10;76.50
17200;DHT22;8716;52.268;20.968;2022-08-19T15:37:50;33.10;76.60
17200;DHT22;8716;52.268;20.968;2022-08-19T15:40:20;33.00;76.80
17200;DHT22;8716;52.268;20.968;2022-08-19T15:42:48;32.90;77.00
17200;DHT22;8716;52.268;20.968;2022-08-19T15:45:18;32.90;77.30
17200;DHT22;8716;52.268;20.968;2022-08-19T15:47:47;32.90;77.30
17200;DHT22;8716;52.268;20.968;2022-08-19T15:50:18;33.00;77.00
17200;DHT22;8716;52.268;20.968;2022-08-19T15:52:48;32.90;77.10
17200;DHT22;8716;52.268;20.968;2022-08-19T15:55:19;32.90;77.70
17200;DHT22;8716;52.268;20.968;2022-08-19T15:58:00;32.90;77.90
17200;DHT22;8716;52.268;20.968;2022-08-19T16:00:56;32.80;78.20
17200;DHT22;8716;52.268;20.968;2022-08-19T16:03:41;32.70;78.60
17200;DHT22;8716;52.268;20.968;2022-08-19T16:06:24;32.70;78.40
17200;DHT22;8716;52.268;20.968;2022-08-19T16:08:58;32.70;78.80
17200;DHT22;8716;52.268;20.968;2022-08-19T16:11:31;32.60;79.10
17200;DHT22;8716;52.268;20.968;2022-08-19T16:14:06;32.50;79.40
17200;DHT22;8716;52.268;20.968;2022-08-19T16:16:36;32.40;79.30
17200;DHT22;8716;52.268;20.968;2022-08-19T16:19:06;32.30;79.50
17200;DHT22;8716;52.268;20.968;2022-08-19T16:21:37;32.20;79.50
17200;DHT22;8716;52.268;20.968;2022-08-19T16:24:09;32.20;79.70
17200;DHT22;8716;52.268;20.968;2022-08-19T16:26:41;32.10;79.90
17200;DHT22;8716;52.268;20.968;2022-08-19T16:29:10;32.10;80.00
17200;DHT22;8716;52.268;20.968;2022-08-19T16:31:40;32.00;79.90
17200;DHT22;8716;52.268;20.968;2022-08-19T16:34:09;31.90;80.40
17200;DHT22;8716;52.268;20.968;2022-08-19T16:36:38;31.80;80.50
17200;DHT22;8716;52.268;20.968;2022-08-19T16:39:08;31.80;80.80
17200;DHT22;8716;52.268;20.968;2022-08-19T16:41:37;31.70;80.80
17200;DHT22;8716;52.268;20.968;2022-08-19T16:44:08;31.60;81.20
17200;DHT22;8716;52.268;20.968;2022-08-19T16:46:38;31.50;81.50
17200;DHT22;8716;52.268;20.968;2022-08-19T16:49:09;31.50;81.90
17200;DHT22;8716;52.268;20.968;2022-08-19T16:51:37;31.40;82.10
17200;DHT22;8716;52.268;20.968;2022-08-19T16:54:07;31.30;82.40
17200;DHT22;8716;52.268;20.968;2022-08-19T16:56:35;31.20;82.40
17200;DHT22;8716;52.268;20.968;2022-08-19T16:59:04;31.20;82.40
17200;DHT22;8716;52.268;20.968;2022-08-19T17:01:33;31.20;82.40
17200;DHT22;8716;52.268;20.968;2022-08-19T17:04:02;31.10;82.60
17200;DHT22;8716;52.268;20.968;2022-08-19T17:06:30;31.00;82.60
17200;DHT22;8716;52.268;20.968;2022-08-19T17:09:00;31.00;82.70
17200;DHT22;8716;52.268;20.968;2022-08-19T17:11:29;30.90;82.50
17200;DHT22;8716;52.268;20.968;2022-08-19T17:13:59;30.90;82.40
17200;DHT22;8716;52.268;20.968;2022-08-19T17:16:29;30.80;82.50
17200;DHT22;8716;52.268;20.968;2022-08-19T17:19:01;30.80;82.90
17200;DHT22;8716;52.268;20.968;2022-08-19T17:21:31;30.70;83.60
17200;DHT22;8716;52.268;20.968;2022-08-19T17:24:02;30.60;83.70
17200;DHT22;8716;52.268;20.968;2022-08-19T17:26:34;30.50;83.90
17200;DHT22;8716;52.268;20.968;2022-08-19T17:29:03;30.50;84.30
17200;DHT22;8716;52.268;20.968;2022-08-19T17:31:32;30.50;84.70
17200;DHT22;8716;52.268;20.968;2022-08-19T17:34:01;30.40;85.00
17200;DHT22;8716;52.268;20.968;2022-08-19T17:36:31;30.30;85.40
17200;DHT22;8716;52.268;20.968;2022-08-19T17:39:00;30.20;86.00
17200;DHT22;8716;52.268;20.968;2022-08-19T17:41:30;30.10;86.20
17200;DHT22;8716;52.268;20.968;2022-08-19T17:44:00;30.10;86.60
17200;DHT22;8716;52.268;20.968;2022-08-19T17:46:29;30.10;87.00
17200;DHT22;8716;52.268;20.968;2022-08-19T17:48:57;30.00;87.30
17200;DHT22;8716;52.268;20.968;2022-08-19T17:51:40;29.90;87.70
17200;DHT22;8716;52.268;20.968;2022-08-19T17:54:10;29.90;88.10
17200;DHT22;8716;52.268;20.968;2022-08-19T17:56:38;29.80;88.50
17200;DHT22;8716;52.268;20.968;2022-08-19T17:59:08;29.80;88.80
17200;DHT22;8716;52.268;20.968;2022-08-19T18:01:40;29.80;89.20
17200;DHT22;8716;52.268;20.968;2022-08-19T18:04:21;29.70;89.40
17200;DHT22;8716;52.268;20.968;2022-08-19T18:06:52;29.60;89.70
17200;DHT22;8716;52.268;20.968;2022-08-19T18:09:23;29.60;90.00
17200;DHT22;8716;52.268;20.968;2022-08-19T18:11:53;29.50;90.20
17200;DHT22;8716;52.268;20.968;2022-08-19T18:14:25;29.50;90.30
17200;DHT22;8716;52.268;20.968;2022-08-19T18:17:01;29.40;90.40
17200;DHT22;8716;52.268;20.968;2022-08-19T18:19:35;29.40;90.60
17200;DHT22;8716;52.268;20.968;2022-08-19T18:22:11;29.30;90.70
17200;DHT22;8716;52.268;20.968;2022-08-19T18:24:40;29.20;90.80
17200;DHT22;8716;52.268;20.968;2022-08-19T18:27:12;29.20;91.00
17200;DHT22;8716;52.268;20.968;2022-08-19T18:29:40;29.10;91.00
17200;DHT22;8716;52.268;20.968;2022-08-19T18:32:09;29.10;91.10
17200;DHT22;8716;52.268;20.968;2022-08-19T18:34:41;29.00;91.10
17200;DHT22;8716;52.268;20.968;2022-08-19T18:37:11;29.00;91.30
17200;DHT22;8716;52.268;20.968;2022-08-19T18:39:39;28.90;91.50
17200;DHT22;8716;52.268;20.968;2022-08-19T18:42:24;28.90;91.60
17200;DHT22;8716;52.268;20.968;2022-08-19T18:45:10;28.80;91.80
17200;DHT22;8716;52.268;20.968;2022-08-19T18:47:56;28.80;91.90
17200;DHT22;8716;52.268;20.968;2022-08-19T18:50:54;28.70;92.10
17200;DHT22;8716;52.268;20.968;2022-08-19T18:53:26;28.60;92.50
17200;DHT22;8716;52.268;20.968;2022-08-19T18:55:55;28.60;92.60
17200;DHT22;8716;52.268;20.968;2022-08-19T18:58:24;28.50;92.70
17200;DHT22;8716;52.268;20.968;2022-08-19T19:00:54;28.50;92.80
17200;DHT22;8716;52.268;20.968;2022-08-19T19:03:24;28.40;92.90
17200;DHT22;8716;52.268;20.968;2022-08-19T19:05:52;28.40;93.00
17200;DHT22;8716;52.268;20.968;2022-08-19T19:08:20;28.40;93.10
17200;DHT22;8716;52.268;20.968;2022-08-19T19:10:57;28.30;93.20
17200;DHT22;8716;52.268;20.968;2022-08-19T19:13:32;28.20;93.30
17200;DHT22;8716;52.268;20.968;2022-08-19T19:16:01;28.20;93.30
17200;DHT22;8716;52.268;20.968;2022-08-19T19:18:29;28.20;93.40
17200;DHT22;8716;52.268;20.968;2022-08-19T19:20:59;28.20;93.50
17200;DHT22;8716;52.268;20.968;2022-08-19T19:23:27;28.10;93.50
17200;DHT22;8716;52.268;20.968;2022-08-19T19:25:59;28.10;93.90